Time;durP1;ratioP1;P1;durP2;ratioP2;P2;SDS_P1;SDS_P2;PMS_P1;PMS_P2;Temp;Humidity;BMP_temperature;BMP_pressure;BME280_temperature;BME280_humidity;BME280_pressure;Samples;Min_cycle;Max_cycle;Signal;HPM_P1;HPM_P2
2023/08/21 00:00:01;;;;;;;;;10.50;10.00;;;;;28.07;43.63;99502.41;5074722;28;45597;-63
2023/08/21 00:02:27;;;;;;;;;14.00;11.75;;;;;28.03;43.12;99501.88;5074177;28;45333;-63
2023/08/21 00:04:53;;;;;;;;;11.25;11.25;;;;;28.00;42.99;99502.19;5074331;28;45586;-63
2023/08/21 00:07:19;;;;;;;;;14.50;12.50;;;;;27.98;43.06;99500.69;5076354;28;45971;-63
2023/08/21 00:09:44;;;;;;;;;13.00;11.00;;;;;27.94;43.50;99493.88;5077905;28;45369;-63
2023/08/21 00:12:10;;;;;;;;;14.25;12.50;;;;;27.92;43.38;99498.63;5077510;28;45364;-63
2023/08/21 00:14:35;;;;;;;;;9.50;9.25;;;;;27.90;43.54;99501.47;5077555;28;45506;-63
2023/08/21 00:17:03;;;;;;;;;11.50;11.25;;;;;27.89;43.92;99501.63;5078027;27;45386;-63
2023/08/21 00:19:28;;;;;;;;;12.25;12.25;;;;;27.87;43.89;99500.94;5076155;28;45496;-63
2023/08/21 00:21:54;;;;;;;;;13.00;13.00;;;;;27.84;43.59;99502.13;5077834;28;45602;-63
2023/08/21 00:24:19;;;;;;;;;12.25;11.25;;;;;27.81;43.85;99501.63;5077882;28;46151;-63
2023/08/21 00:26:44;;;;;;;;;12.50;12.50;;;;;27.77;43.80;99503.81;5077288;28;45472;-63
2023/08/21 00:29:10;;;;;;;;;14.50;13.75;;;;;27.74;44.20;99507.69;5077708;28;45392;-63
2023/08/21 00:31:35;;;;;;;;;13.50;12.25;;;;;27.71;44.40;99501.72;5077304;28;45577;-63
2023/08/21 00:34:00;;;;;;;;;18.50;14.50;;;;;27.69;44.16;99504.59;5077412;28;45420;-63
2023/08/21 00:36:26;;;;;;;;;13.50;13.50;;;;;27.68;44.31;99502.03;5076877;28;45348;-63
2023/08/21 00:38:51;;;;;;;;;13.25;13.00;;;;;27.68;44.35;99510.16;5076860;28;45290;-63
2023/08/21 00:41:17;;;;;;;;;16.25;15.75;;;;;27.65;44.32;99497.78;5091763;27;45400;-63
2023/08/21 00:43:42;;;;;;;;;14.00;14.00;;;;;27.65;44.48;99508.63;5077101;28;46056;-63
2023/08/21 00:46:07;;;;;;;;;14.00;13.25;;;;;27.66;44.15;99510.31;5076024;28;45476;-63
2023/08/21 00:48:33;;;;;;;;;13.75;12.25;;;;;27.64;44.55;99500.69;5077337;28;45502;-63
2023/08/21 00:50:59;;;;;;;;;13.50;13.25;;;;;27.63;44.58;99507.97;5076920;28;45392;-63
2023/08/21 00:53:25;;;;;;;;;15.25;14.50;;;;;27.65;44.94;99507.81;5076741;28;45440;-63
2023/08/21 00:55:50;;;;;;;;;17.25;14.75;;;;;27.62;44.63;99508.97;5076887;28;45463;-63
2023/08/21 00:58:16;;;;;;;;;14.75;12.25;;;;;27.63;44.56;99509.81;5076634;28;45486;-63
2023/08/21 01:00:45;;;;;;;;;16.00;14.00;;;;;27.63;44.81;99509.81;5076854;28;45448;-63
2023/08/21 01:03:11;;;;;;;;;16.00;12.50;;;;;27.61;44.27;99509.97;5076739;28;45790;-63
2023/08/21 01:05:37;;;;;;;;;14.50;14.00;;;;;27.61;44.89;99515.41;5076941;28;45420;-63
2023/08/21 01:08:04;;;;;;;;;12.25;11.25;;;;;27.57;44.94;99513.16;5077086;28;45340;-63
2023/08/21 01:10:39;;;;;;;;;12.75;12.75;;;;;27.50;45.01;99510.19;5076759;28;45631;-63
2023/08/21 01:13:23;;;;;;;;;14.00;12.75;;;;;27.44;44.68;99514.41;5076259;28;46437;-63
2023/08/21 01:15:51;;;;;;;;;13.00;11.50;;;;;27.41;44.75;99520.16;5076799;28;45351;-63
2023/08/21 01:18:19;;;;;;;;;14.75;12.75;;;;;27.39;45.08;99514.03;5074380;28;45462;-63
2023/08/21 01:20:44;;;;;;;;;13.50;12.25;;;;;27.37;45.24;99524.16;5076764;28;45560;-63
2023/08/21 01:23:10;;;;;;;;;14.00;12.75;;;;;27.35;45.47;99522.63;5076729;28;45494;-63
2023/08/21 01:25:35;;;;;;;;;12.25;12.25;;;;;27.31;44.85;99524.81;5076789;28;45392;-63
2023/08/21 01:28:01;;;;;;;;;13.00;12.00;;;;;27.30;45.09;99522.28;5076482;28;45404;-63
2023/08/21 01:30:31;;;;;;;;;15.25;15.25;;;;;27.27;45.34;99519.88;5076250;28;45372;-63
2023/08/21 01:33:08;;;;;;;;;13.00;12.00;;;;;27.24;45.56;99531.00;5075993;27;46253;-63
2023/08/21 01:35:35;;;;;;;;;12.00;11.40;;;;;27.19;45.61;99528.78;5075986;28;45459;-63
2023/08/21 01:38:02;;;;;;;;;12.25;12.25;;;;;27.17;45.00;99538.91;5076228;28;45486;-63
2023/08/21 01:40:28;;;;;;;;;3.25;3.25;;;;;27.14;45.33;99531.13;5076278;28;45606;-63
2023/08/21 01:42:54;;;;;;;;;12.75;12.25;;;;;27.13;45.61;99539.41;5074281;28;46643;-63
2023/08/21 01:45:19;;;;;;;;;15.00;13.00;;;;;27.05;45.73;99541.00;5076078;28;45392;-63
2023/08/21 01:47:44;;;;;;;;;16.75;15.00;;;;;26.99;45.82;99530.81;5075950;28;45371;-63
2023/08/21 01:50:10;;;;;;;;;15.75;14.00;;;;;26.96;46.56;99538.41;5075812;28;45670;-63
2023/08/21 01:52:35;;;;;;;;;12.25;12.00;;;;;26.92;46.07;99545.94;5076314;28;45471;-63
2023/08/21 01:55:01;;;;;;;;;14.00;14.00;;;;;26.90;46.51;99544.41;5076619;28;45482;-63
2023/08/21 01:57:26;;;;;;;;;13.75;13.25;;;;;26.86;46.97;99548.41;5074600;28;45543;-63
2023/08/21 01:59:52;;;;;;;;;14.00;13.00;;;;;26.82;46.79;99542.44;5076303;28;45396;-63
2023/08/21 02:02:17;;;;;;;;;12.75;12.75;;;;;26.79;46.62;99550.06;5075976;28;45447;-63
2023/08/21 02:04:43;;;;;;;;;15.00;15.00;;;;;26.76;46.91;99543.09;5076339;28;45326;-63
2023/08/21 02:07:08;;;;;;;;;17.50;15.75;;;;;26.75;47.58;99560.31;5074652;28;45517;-63
2023/08/21 02:09:34;;;;;;;;;16.00;16.00;;;;;26.72;47.91;99560.63;5076005;28;45445;-63
2023/08/21 02:11:59;;;;;;;;;21.75;19.50;;;;;26.66;47.37;99553.97;5075424;28;46145;-63
2023/08/21 02:14:24;;;;;;;;;20.50;17.75;;;;;26.64;47.04;99558.69;5075964;28;45381;-63
2023/08/21 02:16:50;;;;;;;;;15.75;15.00;;;;;26.61;47.05;99561.72;5076259;28;45401;-63
2023/08/21 02:19:15;;;;;;;;;18.25;17.50;;;;;26.61;46.86;99555.44;5076045;28;45487;-63
2023/08/21 02:21:41;;;;;;;;;15.50;15.50;;;;;26.59;46.89;99552.88;5075631;28;45429;-63
2023/08/21 02:24:06;;;;;;;;;23.75;17.25;;;;;26.58;47.11;99551.19;5075822;28;45400;-63
2023/08/21 02:26:31;;;;;;;;;16.75;16.75;;;;;26.55;47.02;99554.19;5075038;28;45895;-63
2023/08/21 02:28:57;;;;;;;;;18.75;16.25;;;;;26.54;46.99;99560.59;5074954;28;45566;-63
2023/08/21 02:31:23;;;;;;;;;23.25;21.25;;;;;26.50;47.35;99548.38;5074915;28;46125;-63
2023/08/21 02:33:49;;;;;;;;;22.25;22.25;;;;;26.47;47.39;99556.81;5075477;28;45390;-63
2023/08/21 02:36:15;;;;;;;;;21.75;20.50;;;;;26.44;47.65;99558.97;5074980;28;45404;-64
2023/08/21 02:38:41;;;;;;;;;25.50;22.75;;;;;26.41;47.71;99560.13;5075185;28;45435;-62
2023/08/21 02:41:06;;;;;;;;;26.25;23.00;;;;;26.38;47.83;99565.81;5074434;28;46003;-63
2023/08/21 02:43:31;;;;;;;;;24.00;21.50;;;;;26.38;47.86;99563.13;5075572;28;45406;-63
2023/08/21 02:45:57;;;;;;;;;29.00;23.50;;;;;26.35;47.91;99556.16;5075791;28;45408;-63
2023/08/21 02:48:22;;;;;;;;;16.25;14.75;;;;;26.37;48.15;99564.13;5075141;28;45439;-63
2023/08/21 02:50:49;;;;;;;;;23.00;21.00;;;;;26.37;48.50;99564.97;5075340;28;45706;-63
2023/08/21 02:53:14;;;;;;;;;15.00;14.75;;;;;26.38;48.44;99560.41;5075604;28;45388;-63
2023/08/21 02:55:39;;;;;;;;;18.50;15.25;;;;;26.37;48.50;99564.13;5075702;28;45386;-63
2023/08/21 02:58:05;;;;;;;;;21.00;18.75;;;;;26.38;48.75;99571.22;5075074;28;45452;-63
2023/08/21 03:00:30;;;;;;;;;20.25;16.75;;;;;26.36;48.70;99568.69;5075134;28;45986;-63
2023/08/21 03:02:55;;;;;;;;;19.00;16.50;;;;;26.38;49.10;99563.13;5075343;28;45317;-63
2023/08/21 03:05:21;;;;;;;;;20.00;16.75;;;;;26.38;49.04;99568.53;5075422;28;45841;-63
2023/08/21 03:07:46;;;;;;;;;17.50;16.00;;;;;26.38;48.82;99565.81;5075493;28;45297;-63
2023/08/21 03:10:12;;;;;;;;;21.25;20.00;;;;;26.38;48.56;99569.38;5074999;28;45776;-63
2023/08/21 03:12:37;;;;;;;;;21.50;18.75;;;;;26.37;48.26;99564.97;5074894;28;45447;-63
2023/08/21 03:15:03;;;;;;;;;16.50;16.25;;;;;26.38;48.07;99576.63;5075036;28;45298;-63
2023/08/21 03:17:29;;;;;;;;;23.00;21.00;;;;;26.37;48.52;99562.28;5074998;28;45427;-63
2023/08/21 03:19:54;;;;;;;;;20.75;18.25;;;;;26.34;48.65;99570.69;5074588;28;46330;-63
2023/08/21 03:22:19;;;;;;;;;19.75;17.50;;;;;26.33;48.80;99573.53;5074654;28;45371;-63
2023/08/21 03:24:45;;;;;;;;;16.50;15.50;;;;;26.32;48.76;99578.09;5074964;28;45674;-63
2023/08/21 03:27:10;;;;;;;;;16.50;15.00;;;;;26.31;48.97;99573.69;5074307;28;45312;-63
2023/08/21 03:29:35;;;;;;;;;18.50;15.50;;;;;26.30;47.93;99576.56;5074878;28;46177;-63
2023/08/21 03:32:01;;;;;;;;;19.25;17.75;;;;;26.29;48.48;99569.44;5074901;28;45510;-63
2023/08/21 03:34:26;;;;;;;;;18.50;15.00;;;;;26.28;48.28;99575.81;5074963;28;45438;-63
2023/08/21 03:36:52;;;;;;;;;16.25;16.00;;;;;26.25;48.42;99573.41;5074885;27;45457;-63
2023/08/21 03:39:17;;;;;;;;;17.00;14.25;;;;;26.21;48.38;99578.25;5074486;28;46527;-63
2023/08/21 03:41:43;;;;;;;;;14.75;13.50;;;;;26.16;49.15;99572.44;5075820;28;45546;-63
2023/08/21 03:44:08;;;;;;;;;13.50;13.00;;;;;26.11;48.94;99579.31;5078397;28;45512;-63
2023/08/21 03:46:33;;;;;;;;;15.00;13.25;;;;;26.06;48.99;99579.75;5078100;28;45447;-63
2023/08/21 03:48:59;;;;;;;;;15.75;15.25;;;;;26.02;48.78;99581.03;5078078;28;46391;-63
2023/08/21 03:51:24;;;;;;;;;13.50;13.50;;;;;26.01;48.91;99582.03;5077950;28;45561;-63
2023/08/21 03:53:49;;;;;;;;;17.75;15.25;;;;;25.98;49.34;99583.19;5078478;28;45434;-63
2023/08/21 03:56:15;;;;;;;;;15.75;14.75;;;;;25.96;49.57;99582.50;5076318;28;45568;-63
2023/08/21 03:58:40;;;;;;;;;16.00;15.25;;;;;25.97;49.63;99581.50;5078145;28;45944;-63
2023/08/21 04:01:06;;;;;;;;;19.25;15.00;;;;;25.97;50.13;99584.22;5077924;28;45420;-63
2023/08/21 04:03:31;;;;;;;;;12.25;12.25;;;;;25.96;50.26;99581.66;5077975;28;45363;-62
2023/08/21 04:05:56;;;;;;;;;19.25;15.25;;;;;25.96;50.16;99584.38;5077840;28;45411;-64
2023/08/21 04:08:25;;;;;;;;;16.00;15.75;;;;;25.94;50.40;99584.50;5077829;28;46550;-63
2023/08/21 04:10:53;;;;;;;;;18.50;16.25;;;;;25.95;50.45;99588.91;5077887;28;45289;-63
2023/08/21 04:13:19;;;;;;;;;17.25;14.00;;;;;25.95;50.83;99594.31;5077596;28;45585;-63
2023/08/21 04:15:45;;;;;;;;;15.50;14.25;;;;;25.94;50.92;99594.47;5077650;28;45540;-64
2023/08/21 04:18:11;;;;;;;;;14.00;13.75;;;;;25.92;51.12;99597.31;5077285;28;45458;-63
2023/08/21 04:20:37;;;;;;;;;16.25;14.25;;;;;25.91;50.67;99590.19;5077377;28;45329;-63
2023/08/21 04:23:02;;;;;;;;;18.00;17.25;;;;;25.91;51.04;99606.41;5077031;28;45415;-63
2023/08/21 04:25:28;;;;;;;;;17.00;15.50;;;;;25.90;51.26;99602.00;5077091;28;45367;-64
2023/08/21 04:27:53;;;;;;;;;13.75;13.00;;;;;25.88;51.09;99600.44;5076871;28;46410;-63
2023/08/21 04:30:19;;;;;;;;;15.50;14.50;;;;;25.86;51.28;99602.44;5077387;28;45288;-63
2023/08/21 04:32:44;;;;;;;;;19.50;15.50;;;;;25.85;51.10;99607.00;5077406;28;45352;-63
2023/08/21 04:35:09;;;;;;;;;16.25;16.25;;;;;25.84;51.39;99610.69;5077255;28;45359;-63
2023/08/21 04:37:37;;;;;;;;;16.00;15.25;;;;;25.83;51.21;99603.56;5077548;28;45529;-63
2023/08/21 04:40:03;;;;;;;;;14.25;13.00;;;;;25.80;51.41;99603.03;5075786;27;45524;-64
2023/08/21 04:42:28;;;;;;;;;15.00;15.00;;;;;25.78;51.60;99610.44;5077105;28;45388;-63
2023/08/21 04:44:54;;;;;;;;;14.75;13.25;;;;;25.77;51.56;99616.84;5075824;28;45439;-63
2023/08/21 04:47:27;;;;;;;;;16.00;14.00;;;;;25.75;51.53;99616.97;5077046;28;46152;-63
2023/08/21 04:49:53;;;;;;;;;14.00;13.75;;;;;25.73;51.42;99619.81;5077137;28;45399;-63
2023/08/21 04:52:19;;;;;;;;;14.25;14.00;;;;;25.71;51.09;99629.91;5077257;28;45393;-64
2023/08/21 04:54:46;;;;;;;;;16.25;14.75;;;;;25.70;51.35;99624.66;5076896;28;45383;-63
2023/08/21 04:57:11;;;;;;;;;14.25;13.75;;;;;25.69;51.27;99634.59;5076248;28;45338;-63
2023/08/21 04:59:38;;;;;;;;;15.25;13.00;;;;;25.68;51.38;99632.03;5076644;28;45370;-63
2023/08/21 05:02:03;;;;;;;;;8.75;5.00;;;;;25.67;51.09;99636.59;5076978;28;45369;-64
2023/08/21 05:04:28;;;;;;;;;17.75;14.25;;;;;25.68;51.17;99637.44;5076925;28;45442;-63
2023/08/21 05:06:54;;;;;;;;;14.75;13.75;;;;;25.67;51.24;99639.28;5076470;28;46218;-63
2023/08/21 05:09:19;;;;;;;;;17.50;15.25;;;;;25.67;51.00;99644.69;5076841;28;45380;-63
2023/08/21 05:11:45;;;;;;;;;15.00;14.75;;;;;25.67;50.96;99649.25;5076424;28;45300;-63
2023/08/21 05:14:10;;;;;;;;;16.75;13.25;;;;;25.66;50.99;99648.41;5076161;28;45347;-63
2023/08/21 05:16:35;;;;;;;;;20.75;16.50;;;;;25.67;50.88;99655.50;5076021;28;45502;-63
2023/08/21 05:19:01;;;;;;;;;17.00;14.00;;;;;25.68;51.06;99656.34;5076079;28;45440;-63
2023/08/21 05:21:26;;;;;;;;;15.25;14.00;;;;;25.68;51.12;99650.97;5076058;28;45473;-63
2023/08/21 05:23:52;;;;;;;;;18.50;16.00;;;;;25.69;51.07;99664.31;5076277;28;45423;-63
2023/08/21 05:26:17;;;;;;;;;15.50;14.25;;;;;25.69;50.70;99663.47;5075301;28;45425;-63
2023/08/21 05:28:42;;;;;;;;;16.00;14.75;;;;;25.72;50.79;99665.88;5075352;28;45535;-63
2023/08/21 05:31:08;;;;;;;;;16.75;15.75;;;;;25.73;50.74;99670.28;5075969;28;45370;-63
2023/08/21 05:33:33;;;;;;;;;16.50;14.75;;;;;25.74;50.87;99661.19;5076202;28;45444;-63
2023/08/21 05:35:58;;;;;;;;;17.50;16.00;;;;;25.76;51.09;99672.72;5076079;28;45551;-63
2023/08/21 05:38:24;;;;;;;;;15.25;14.50;;;;;25.77;51.00;99673.56;5076034;28;45321;-63
2023/08/21 05:40:49;;;;;;;;;16.25;14.00;;;;;25.79;49.91;99664.31;5076239;28;45411;-63
2023/08/21 05:43:16;;;;;;;;;16.00;15.75;;;;;25.83;49.61;99668.41;5075385;28;45503;-63
2023/08/21 05:45:42;;;;;;;;;17.25;16.25;;;;;25.86;50.04;99672.69;5075415;28;46576;-63
2023/08/21 05:48:08;;;;;;;;;14.50;13.75;;;;;25.87;50.21;99669.84;5075207;28;45461;-63
2023/08/21 05:50:33;;;;;;;;;16.25;15.75;;;;;25.89;50.37;99678.66;5076002;28;45750;-63
2023/08/21 05:53:01;;;;;;;;;18.25;15.50;;;;;25.91;50.34;99682.06;5074411;28;45389;-63
2023/08/21 05:55:27;;;;;;;;;15.75;15.75;;;;;25.94;49.93;99680.94;5076178;28;46425;-63
2023/08/21 05:57:52;;;;;;;;;18.50;17.75;;;;;25.97;50.14;99683.34;5073563;28;45382;-63
2023/08/21 06:00:18;;;;;;;;;18.00;16.50;;;;;26.01;50.59;99687.44;5074307;27;45625;-63
2023/08/21 06:02:43;;;;;;;;;16.75;13.50;;;;;26.04;50.27;99685.28;5075794;28;45466;-63
2023/08/21 06:05:09;;;;;;;;;13.75;13.50;;;;;26.06;50.45;99683.31;5074975;28;46076;-63
2023/08/21 06:07:34;;;;;;;;;21.25;17.25;;;;;26.11;49.82;99688.28;5075513;28;45392;-63
2023/08/21 06:10:00;;;;;;;;;18.75;17.50;;;;;26.15;49.99;99692.38;5075461;28;45384;-63
2023/08/21 06:12:25;;;;;;;;;19.75;17.75;;;;;26.18;49.84;99686.69;5074717;28;45433;-65
2023/08/21 06:14:50;;;;;;;;;16.25;15.50;;;;;26.22;49.83;99692.66;5074634;28;45530;-63
2023/08/21 06:17:16;;;;;;;;;14.75;14.75;;;;;26.25;49.80;99698.63;5075088;28;45411;-63
2023/08/21 06:19:41;;;;;;;;;18.75;15.75;;;;;26.28;49.96;99695.63;5075717;28;45468;-63
2023/08/21 06:22:07;;;;;;;;;17.50;14.00;;;;;26.31;49.88;99689.94;5074771;28;45558;-63
2023/08/21 06:24:33;;;;;;;;;16.75;16.00;;;;;26.33;50.10;99687.09;5074879;28;45571;-64
2023/08/21 06:26:58;;;;;;;;;19.00;16.75;;;;;26.38;49.98;99692.91;5074072;28;45297;-63
2023/08/21 06:29:24;;;;;;;;;17.00;15.75;;;;;26.42;50.04;99692.47;5073837;28;45590;-63
2023/08/21 06:31:50;;;;;;;;;20.50;18.00;;;;;26.47;50.11;99693.88;5073610;28;45540;-63
2023/08/21 06:34:15;;;;;;;;;19.75;18.00;;;;;26.50;50.31;99693.56;5075130;28;45348;-63
2023/08/21 06:36:41;;;;;;;;;16.50;16.50;;;;;26.53;50.24;99688.72;5073669;27;45388;-63
2023/08/21 06:39:06;;;;;;;;;16.75;14.50;;;;;26.58;50.66;99697.25;5075341;28;45362;-63
2023/08/21 06:41:31;;;;;;;;;17.75;17.25;;;;;26.62;50.30;99695.94;5074674;28;45685;-63
2023/08/21 06:43:58;;;;;;;;;23.75;19.50;;;;;26.66;50.23;99693.78;5075194;28;45459;-63
2023/08/21 06:46:23;;;;;;;;;22.00;18.25;;;;;26.68;50.17;99691.78;5074931;28;45466;-64
2023/08/21 06:48:50;;;;;;;;;17.25;17.00;;;;;26.71;49.98;99695.03;5074722;28;45460;-64
2023/08/21 06:51:16;;;;;;;;;19.75;18.00;;;;;26.73;49.54;99698.44;5074826;28;45515;-64
2023/08/21 06:53:41;;;;;;;;;19.00;16.75;;;;;26.78;49.31;99700.72;5074813;28;45769;-64
2023/08/21 06:56:07;;;;;;;;;16.25;15.50;;;;;26.82;49.76;99698.53;5074123;28;45458;-63
2023/08/21 06:58:33;;;;;;;;;18.00;16.25;;;;;26.84;49.73;99694.66;5074704;28;45338;-63
2023/08/21 07:01:00;;;;;;;;;17.00;15.25;;;;;26.90;49.41;99695.94;5074296;28;45357;-63
2023/08/21 07:03:25;;;;;;;;;16.75;15.00;;;;;26.94;49.14;99691.97;5074328;28;45440;-63
2023/08/21 07:05:55;;;;;;;;;18.25;17.50;;;;;26.99;48.72;99692.34;5074468;28;45310;-63
2023/08/21 07:08:21;;;;;;;;;25.00;17.75;;;;;27.02;48.97;99692.88;5074683;28;45418;-63
2023/08/21 07:10:47;;;;;;;;;21.75;20.75;;;;;27.08;48.36;99700.41;5074669;28;45340;-63
2023/08/21 07:13:12;;;;;;;;;18.75;14.00;;;;;27.13;48.95;99694.53;5074143;28;46240;-63
2023/08/21 07:15:37;;;;;;;;;18.50;17.75;;;;;27.17;48.42;99690.50;5073418;28;45305;-63
2023/08/21 07:18:03;;;;;;;;;17.75;17.25;;;;;27.21;48.41;99691.91;5072994;28;45695;-63
2023/08/21 07:20:28;;;;;;;;;19.00;16.75;;;;;27.26;48.42;99689.59;5072568;28;46212;-63
2023/08/21 07:22:54;;;;;;;;;14.25;13.00;;;;;27.31;48.29;99694.56;5074198;28;45411;-63
2023/08/21 07:25:19;;;;;;;;;17.00;15.75;;;;;27.36;48.17;99684.94;5074544;28;45377;-63
2023/08/21 07:27:45;;;;;;;;;16.75;14.00;;;;;27.42;48.00;99686.19;5073925;28;45421;-63
2023/08/21 07:30:10;;;;;;;;;18.25;16.75;;;;;27.48;47.88;99682.03;5074525;28;45272;-63
2023/08/21 07:32:36;;;;;;;;;20.00;16.50;;;;;27.52;47.96;99689.66;5074247;28;45417;-64
2023/08/21 07:35:02;;;;;;;;;17.00;16.25;;;;;27.58;47.79;99680.09;5074233;28;45489;-62
2023/08/21 07:37:27;;;;;;;;;20.25;20.00;;;;;27.64;47.80;99676.78;5090597;27;45599;-63
2023/08/21 07:39:53;;;;;;;;;16.25;13.25;;;;;27.70;47.44;99676.13;5074058;28;45549;-62
2023/08/21 07:42:18;;;;;;;;;15.25;14.00;;;;;27.74;47.74;99683.81;5073828;28;46023;-62
2023/08/21 07:44:45;;;;;;;;;16.25;16.25;;;;;27.81;47.22;99681.31;5074148;28;45421;-62
2023/08/21 07:47:11;;;;;;;;;13.50;11.00;;;;;27.88;47.17;99679.66;5074237;28;45450;-63
2023/08/21 07:49:36;;;;;;;;;17.75;17.75;;;;;27.94;46.60;99679.03;5074451;28;45378;-64
2023/08/21 07:52:04;;;;;;;;;18.75;16.50;;;;;28.02;46.79;99684.50;5073812;28;46303;-63
2023/08/21 07:54:29;;;;;;;;;16.00;14.75;;;;;28.07;46.37;99678.63;5074288;28;45438;-63
2023/08/21 07:56:54;;;;;;;;;14.75;14.75;;;;;28.11;46.62;99675.44;5073899;28;45767;-64
2023/08/21 07:59:20;;;;;;;;;16.25;15.50;;;;;28.18;47.09;99680.19;5073606;28;45321;-63
2023/08/21 08:01:45;;;;;;;;;17.00;15.75;;;;;28.24;46.51;99669.59;5071769;28;47595;-63
2023/08/21 08:04:11;;;;;;;;;17.75;15.75;;;;;28.30;46.49;99674.41;5073102;27;45373;-64
2023/08/21 08:06:36;;;;;;;;;22.50;16.25;;;;;28.36;45.89;99665.59;5073571;28;45578;-63
2023/08/21 08:09:05;;;;;;;;;16.25;16.25;;;;;28.42;45.62;99670.38;5073757;28;45392;-63
2023/08/21 08:11:30;;;;;;;;;17.00;15.50;;;;;28.49;45.32;99665.13;5073422;28;46232;-63
2023/08/21 08:13:56;;;;;;;;;18.50;18.00;;;;;28.55;45.13;99664.50;5073529;28;45452;-64
2023/08/21 08:16:21;;;;;;;;;19.00;17.00;;;;;28.62;45.33;99659.28;5074127;28;45393;-63
2023/08/21 08:18:46;;;;;;;;;18.00;17.50;;;;;28.68;45.28;99662.16;5073895;28;45530;-63
2023/08/21 08:21:12;;;;;;;;;17.00;16.00;;;;;28.75;45.14;99660.50;5073276;28;46450;-63
2023/08/21 08:23:37;;;;;;;;;15.75;15.50;;;;;28.82;44.76;99655.31;5073455;28;45368;-63
2023/08/21 08:26:03;;;;;;;;;21.00;16.00;;;;;28.87;44.86;99655.66;5073290;28;45516;-63
2023/08/21 08:28:28;;;;;;;;;14.25;14.25;;;;;28.93;45.11;99656.88;5075764;28;45364;-63
2023/08/21 08:30:54;;;;;;;;;18.00;17.50;;;;;28.99;44.96;99648.88;5076921;28;46290;-63
2023/08/21 08:33:20;;;;;;;;;14.75;14.50;;;;;29.07;44.62;99648.06;5075027;28;45405;-63
2023/08/21 08:35:45;;;;;;;;;17.25;16.50;;;;;29.13;44.83;99647.41;5076331;28;45499;-62
2023/08/21 08:38:11;;;;;;;;;19.00;15.00;;;;;29.20;44.08;99644.88;5076601;28;45390;-63
2023/08/21 08:40:43;;;;;;;;;15.00;13.25;;;;;29.27;44.14;99644.03;5076410;28;45463;-63
2023/08/21 08:43:10;;;;;;;;;16.25;14.25;;;;;29.36;43.68;99634.84;5076703;28;45376;-63
2023/08/21 08:45:36;;;;;;;;;17.50;16.50;;;;;29.43;44.08;99635.06;5076332;28;45429;-63
2023/08/21 08:48:04;;;;;;;;;17.25;14.00;;;;;29.48;43.58;99624.56;5076289;28;45535;-62
2023/08/21 08:50:31;;;;;;;;;12.25;11.00;;;;;29.56;43.48;99627.25;5075277;27;45502;-63
2023/08/21 08:52:58;;;;;;;;;15.75;15.25;;;;;29.63;42.64;99625.56;5076180;28;45393;-63
2023/08/21 08:55:24;;;;;;;;;14.50;13.75;;;;;29.72;42.24;99629.97;5076718;28;45364;-63
2023/08/21 08:57:49;;;;;;;;;17.25;13.50;;;;;29.78;42.73;99621.13;5076008;28;45325;-63
2023/08/21 09:00:15;;;;;;;;;16.25;14.75;;;;;29.87;42.61;99613.78;5076576;28;45985;-63
2023/08/21 09:02:41;;;;;;;;;14.75;13.75;;;;;29.94;41.89;99616.69;5075062;28;45848;-63
2023/08/21 09:05:08;;;;;;;;;8.00;6.50;;;;;30.01;41.91;99612.25;5076848;28;45467;-64
2023/08/21 09:07:33;;;;;;;;;15.75;14.75;;;;;30.08;42.09;99614.13;5076034;28;45556;-63
2023/08/21 09:09:59;;;;;;;;;17.75;16.25;;;;;30.17;42.00;99612.22;5076374;28;46301;-63
2023/08/21 09:12:25;;;;;;;;;16.25;15.50;;;;;30.25;41.51;99608.63;5075927;28;45482;-64
2023/08/21 09:14:50;;;;;;;;;15.00;13.75;;;;;30.33;41.66;99604.00;5076565;28;45396;-63
2023/08/21 09:17:15;;;;;;;;;18.50;16.00;;;;;30.41;41.22;99606.69;5075202;28;45519;-63
2023/08/21 09:19:42;;;;;;;;;14.25;12.75;;;;;30.49;41.16;99601.25;5076374;28;45619;-63
2023/08/21 09:22:12;;;;;;;;;14.75;12.50;;;;;30.58;41.35;99596.63;5076424;28;45480;-63
2023/08/21 09:25:10;;;;;;;;;16.00;14.25;;;;;30.66;41.04;99590.28;5076549;28;45458;-63
2023/08/21 09:27:39;;;;;;;;;17.50;17.00;;;;;30.73;41.47;99589.38;5075501;28;45463;-63
2023/08/21 09:30:16;;;;;;;;;17.00;17.00;;;;;30.81;41.67;99583.06;5076297;28;45483;-63
2023/08/21 09:33:00;;;;;;;;;17.75;16.00;;;;;30.87;40.74;99575.00;5075958;28;45562;-64
2023/08/21 09:35:26;;;;;;;;;12.25;12.25;;;;;30.96;39.81;99581.25;5076114;28;45327;-64
2023/08/21 09:37:55;;;;;;;;;12.50;12.00;;;;;31.04;39.40;99573.00;5075924;28;45359;-64
2023/08/21 09:40:23;;;;;;;;;12.75;12.50;;;;;31.12;38.69;99573.00;5074592;28;46248;-64
2023/08/21 09:42:54;;;;;;;;;12.00;12.00;;;;;31.21;38.61;99565.59;5075404;28;45266;-64
2023/08/21 09:45:24;;;;;;;;;12.00;12.00;;;;;31.32;38.74;99558.88;5075489;28;45483;-63
2023/08/21 09:47:51;;;;;;;;;14.75;14.75;;;;;31.38;38.49;99561.69;5073641;28;45757;-63
2023/08/21 09:50:18;;;;;;;;;17.00;14.75;;;;;31.47;38.45;99562.47;5075736;27;45446;-64
2023/08/21 09:52:44;;;;;;;;;13.75;12.75;;;;;31.55;38.28;99557.78;5075689;28;45466;-64
2023/08/21 09:55:10;;;;;;;;;13.00;12.00;;;;;31.65;37.64;99563.03;5075986;28;45400;-64
2023/08/21 09:57:36;;;;;;;;;13.25;11.25;;;;;31.73;37.42;99560.19;5075658;28;45395;-63
2023/08/21 10:00:15;;;;;;;;;14.25;12.50;;;;;31.80;36.67;99554.84;5075464;28;46459;-63
2023/08/21 10:02:42;;;;;;;;;12.25;11.25;;;;;31.84;36.28;99550.72;5075616;28;45459;-64
2023/08/21 10:05:10;;;;;;;;;13.25;12.00;;;;;31.89;36.25;99546.38;5075873;28;45376;-63
2023/08/21 10:07:36;;;;;;;;;14.00;14.00;;;;;31.96;35.88;99553.81;5075125;28;45395;-63
2023/08/21 10:10:01;;;;;;;;;14.75;13.25;;;;;32.01;35.89;99546.75;5075621;28;46246;-64
2023/08/21 10:12:27;;;;;;;;;14.50;14.00;;;;;32.07;35.78;99540.53;5075216;28;45353;-64
2023/08/21 10:14:52;;;;;;;;;13.50;13.50;;;;;32.15;36.29;99540.47;5075748;28;45519;-64
2023/08/21 10:17:18;;;;;;;;;13.25;12.00;;;;;32.23;35.83;99534.91;5075760;28;45281;-64
2023/08/21 10:19:52;;;;;;;;;14.25;14.25;;;;;32.30;35.50;99532.28;5074954;28;45343;-64
2023/08/21 10:22:45;;;;;;;;;12.75;11.00;;;;;32.35;35.42;99529.78;5074188;28;45469;-63
2023/08/21 10:25:28;;;;;;;;;15.25;13.00;;;;;32.43;35.03;99528.84;5075261;28;45394;-63
2023/08/21 10:27:59;;;;;;;;;12.25;11.00;;;;;32.48;35.05;99531.88;5074514;28;45347;-63
2023/08/21 10:30:26;;;;;;;;;15.25;13.25;;;;;32.52;35.45;99535.88;5074670;28;46248;-62
2023/08/21 10:32:54;;;;;;;;;15.75;15.25;;;;;32.55;34.99;99528.16;5075184;28;45322;-63
2023/08/21 10:35:31;;;;;;;;;15.50;13.50;;;;;32.61;35.03;99523.81;5074697;28;45470;-63
2023/08/21 10:38:16;;;;;;;;;16.00;14.00;;;;;32.67;34.98;99523.06;5074723;28;45431;-63
2023/08/21 10:41:08;;;;;;;;;12.25;12.25;;;;;32.71;34.86;99512.56;5074214;28;46651;-63
2023/08/21 10:43:51;;;;;;;;;14.75;13.75;;;;;32.79;34.93;99507.03;5069249;28;45470;-63
2023/08/21 10:46:16;;;;;;;;;15.50;13.25;;;;;32.84;34.25;99510.03;5075093;28;45417;-63
2023/08/21 10:48:42;;;;;;;;;15.25;12.50;;;;;32.90;34.32;99509.22;5074918;28;45360;-63
2023/08/21 10:51:08;;;;;;;;;15.50;14.50;;;;;32.94;34.55;99500.44;5074972;28;46257;-63
2023/08/21 10:53:35;;;;;;;;;14.50;13.00;;;;;33.01;34.26;99500.53;5074620;28;45422;-63
2023/08/21 10:56:05;;;;;;;;;14.00;14.00;;;;;33.11;34.66;99497.44;5074351;27;45480;-63
2023/08/21 10:58:45;;;;;;;;;14.75;14.75;;;;;33.16;34.25;99501.28;5075024;28;45375;-63
2023/08/21 11:01:12;;;;;;;;;13.50;11.75;;;;;33.23;34.32;99491.25;5074479;28;47359;-63
2023/08/21 11:03:39;;;;;;;;;15.25;14.75;;;;;33.31;33.69;99495.75;5074288;28;45481;-63
2023/08/21 11:06:07;;;;;;;;;14.50;14.50;;;;;33.37;33.67;99489.47;5074800;28;45338;-63
2023/08/21 11:08:33;;;;;;;;;15.00;12.50;;;;;33.42;33.45;99491.63;5074707;28;45585;-64
2023/08/21 11:11:03;;;;;;;;;13.25;12.75;;;;;33.48;33.37;99493.56;5073801;28;45438;-64
2023/08/21 11:13:29;;;;;;;;;17.25;16.25;;;;;33.54;33.45;99479.06;5072959;28;45412;-63